Time;durP1;ratioP1;P1;durP2;ratioP2;P2;SDS_P1;SDS_P2;PMS_P1;PMS_P2;Temp;Humidity;BMP_temperature;BMP_pressure;BME280_temperature;BME280_humidity;BME280_pressure;Samples;Min_cycle;Max_cycle;Signal;HPM_P1;HPM_P2
2023/05/19 00:00:01;;;;;;;3.37;1.87;;;8.30;99.90;;;;;;4962483;28;20189;-85
2023/05/19 00:02:32;;;;;;;3.58;1.83;;;8.30;99.90;;;;;;4970427;28;20302;-83
2023/05/19 00:05:01;;;;;;;2.00;1.70;;;8.30;99.90;;;;;;4967543;28;20261;-84
2023/05/19 00:07:30;;;;;;;2.35;1.70;;;8.20;99.90;;;;;;4972639;28;20298;-85
2023/05/19 00:09:55;;;;;;;1.88;1.70;;;8.10;99.90;;;;;;4968860;28;20191;-84
2023/05/19 00:12:21;;;;;;;1.53;1.43;;;8.00;99.90;;;;;;4985720;28;20183;-86
2023/05/19 00:14:47;;;;;;;3.28;2.08;;;8.00;99.90;;;;;;4976827;28;20281;-83
2023/05/19 00:17:15;;;;;;;3.83;2.33;;;8.00;99.90;;;;;;4983530;28;20281;-86
2023/05/19 00:19:41;;;;;;;2.50;2.05;;;8.00;99.90;;;;;;4981047;28;20213;-85
2023/05/19 00:22:06;;;;;;;3.57;2.00;;;8.00;99.90;;;;;;4970796;28;20674;-86
2023/05/19 00:24:32;;;;;;;5.77;2.20;;;7.90;99.90;;;;;;4989322;28;20950;-86
2023/05/19 00:26:57;;;;;;;2.20;1.77;;;7.80;99.90;;;;;;4989107;28;20193;-84
2023/05/19 00:29:23;;;;;;;4.37;2.20;;;7.80;99.90;;;;;;4969837;28;20179;-85
2023/05/19 00:31:48;;;;;;;1.90;1.73;;;7.80;99.90;;;;;;4972753;28;20187;-85
2023/05/19 00:34:14;;;;;;;3.37;1.73;;;7.80;99.90;;;;;;4970357;28;21368;-83
2023/05/19 00:36:39;;;;;;;2.87;2.10;;;7.80;99.90;;;;;;4973666;28;20684;-82
2023/05/19 00:39:05;;;;;;;3.67;2.07;;;7.70;99.90;;;;;;4976659;28;20190;-86
2023/05/19 00:41:30;;;;;;;4.67;2.17;;;7.80;99.90;;;;;;4992134;28;20262;-84
2023/05/19 00:43:56;;;;;;;1.97;1.50;;;7.80;99.90;;;;;;4979470;28;20210;-84
2023/05/19 00:46:22;;;;;;;4.27;2.73;;;7.80;99.90;;;;;;4983580;28;20225;-83
2023/05/19 00:48:47;;;;;;;6.70;2.50;;;7.80;99.90;;;;;;4975868;28;20216;-86
2023/05/19 00:51:15;;;;;;;2.80;1.73;;;7.70;99.90;;;;;;4972171;28;20171;-85
2023/05/19 00:53:42;;;;;;;4.93;2.00;;;7.80;99.90;;;;;;4972237;28;20703;-85
2023/05/19 00:56:08;;;;;;;4.03;2.63;;;7.70;99.90;;;;;;4980904;28;20206;-85
2023/05/19 00:58:35;;;;;;;4.18;2.20;;;7.70;99.90;;;;;;4980780;28;21124;-86
2023/05/19 01:01:06;;;;;;;2.58;2.05;;;7.70;99.90;;;;;;4972899;28;20191;-83
2023/05/19 01:03:36;;;;;;;4.95;2.13;;;7.70;99.90;;;;;;4984278;28;20178;-83
2023/05/19 01:06:06;;;;;;;5.68;1.67;;;7.70;99.90;;;;;;4969491;28;20696;-83
2023/05/19 01:08:32;;;;;;;5.43;2.35;;;7.60;99.90;;;;;;4975017;28;20253;-84
2023/05/19 01:10:58;;;;;;;2.00;1.75;;;7.60;99.90;;;;;;4985275;28;20334;-85
2023/05/19 01:13:25;;;;;;;18.13;3.07;;;7.50;99.90;;;;;;4969007;28;20281;-85
2023/05/19 01:16:11;;;;;;;4.75;2.00;;;7.50;99.90;;;;;;4970382;28;21023;-86
2023/05/19 01:18:39;;;;;;;4.78;1.98;;;7.50;99.90;;;;;;4985200;28;20559;-85
2023/05/19 01:21:35;;;;;;;2.15;1.90;;;7.50;99.90;;;;;;4985547;28;20191;-84
2023/05/19 01:24:38;;;;;;;3.40;1.65;;;7.50;99.90;;;;;;4977682;28;20197;-83
2023/05/19 01:27:23;;;;;;;3.90;2.20;;;7.40;99.90;;;;;;4948024;28;20199;-86
2023/05/19 01:30:07;;;;;;;10.73;2.75;;;7.40;99.90;;;;;;4976034;28;20201;-85
2023/05/19 01:32:34;;;;;;;19.50;3.78;;;7.40;99.90;;;;;;4991313;28;20181;-85
2023/05/19 01:35:01;;;;;;;2.17;2.00;;;7.50;99.90;;;;;;4968304;28;20199;-86
2023/05/19 01:37:28;;;;;;;2.72;2.25;;;7.40;99.90;;;;;;4973546;28;20301;-86
2023/05/19 01:39:54;;;;;;;10.02;3.03;;;7.50;99.90;;;;;;4978448;28;20240;-84
2023/05/19 01:42:21;;;;;;;2.50;1.80;;;7.50;99.90;;;;;;4964589;28;20179;-84
2023/05/19 01:44:47;;;;;;;4.07;2.50;;;7.60;99.90;;;;;;4983156;28;20623;-84
2023/05/19 01:47:13;;;;;;;2.70;1.60;;;7.60;99.90;;;;;;4990496;28;20179;-84
2023/05/19 01:49:39;;;;;;;5.30;2.00;;;7.70;99.90;;;;;;4983601;28;20525;-84
2023/05/19 01:52:06;;;;;;;4.53;1.97;;;7.70;99.90;;;;;;4989296;28;20674;-85
2023/05/19 01:54:31;;;;;;;2.22;1.90;;;7.80;99.90;;;;;;4961898;28;20195;-86
2023/05/19 01:57:23;;;;;;;2.90;1.87;;;7.80;99.90;;;;;;4982415;28;20690;-85
2023/05/19 02:00:06;;;;;;;4.30;2.55;;;7.90;99.90;;;;;;4971260;28;20195;-82
2023/05/19 02:03:00;;;;;;;2.80;1.77;;;7.80;99.90;;;;;;4969791;28;20187;-83
2023/05/19 02:05:30;;;;;;;3.00;1.92;;;7.70;99.90;;;;;;4978114;28;20222;-86
2023/05/19 02:08:09;;;;;;;5.72;2.40;;;7.70;99.90;;;;;;4981001;28;20195;-85
2023/05/19 02:10:38;;;;;;;3.75;1.98;;;7.70;99.90;;;;;;4963679;28;20197;-85
2023/05/19 02:13:08;;;;;;;9.73;2.50;;;7.70;99.90;;;;;;4964299;28;20309;-84
2023/05/19 02:15:39;;;;;;;2.85;1.98;;;7.60;99.90;;;;;;4962927;28;20927;-83
2023/05/19 02:18:06;;;;;;;2.58;1.98;;;7.70;99.90;;;;;;4979151;28;20182;-86
2023/05/19 02:20:31;;;;;;;2.25;1.63;;;7.70;99.90;;;;;;4980154;28;20257;-86
2023/05/19 02:22:57;;;;;;;9.00;2.70;;;7.70;99.90;;;;;;4963523;28;20183;-85
2023/05/19 02:25:23;;;;;;;2.20;2.00;;;7.70;99.90;;;;;;4987797;28;20222;-85
2023/05/19 02:27:50;;;;;;;5.03;1.73;;;7.80;99.90;;;;;;4976650;28;20182;-86
2023/05/19 02:30:15;;;;;;;4.10;1.88;;;7.80;99.90;;;;;;4976496;28;20988;-85
2023/05/19 02:32:41;;;;;;;2.63;2.03;;;7.90;99.90;;;;;;4995039;28;20190;-86
2023/05/19 02:35:07;;;;;;;5.40;2.47;;;8.00;99.90;;;;;;4971395;28;21203;-83
2023/05/19 02:37:32;;;;;;;4.30;2.63;;;8.10;99.90;;;;;;4988162;28;20267;-85
2023/05/19 02:39:58;;;;;;;2.13;1.93;;;8.20;99.90;;;;;;4972528;28;20446;-86
2023/05/19 02:42:23;;;;;;;2.30;1.97;;;8.20;99.90;;;;;;4975342;28;20182;-84
2023/05/19 02:44:49;;;;;;;6.47;1.80;;;8.10;99.90;;;;;;4990421;28;22811;-85
2023/05/19 02:47:14;;;;;;;5.53;1.70;;;8.10;99.90;;;;;;4989309;28;20289;-82
2023/05/19 02:49:41;;;;;;;3.60;1.90;;;8.10;99.90;;;;;;4988403;28;20206;-86
2023/05/19 02:52:07;;;;;;;3.90;1.88;;;8.00;99.90;;;;;;4967617;28;20182;-86
2023/05/19 02:54:33;;;;;;;4.87;1.90;;;7.90;99.90;;;;;;4992919;28;20262;-84
2023/05/19 02:57:00;;;;;;;3.67;2.80;;;7.80;99.90;;;;;;4984706;28;20792;-85
2023/05/19 02:59:25;;;;;;;4.68;1.88;;;7.90;99.90;;;;;;4985518;28;20226;-84
2023/05/19 03:01:54;;;;;;;7.90;2.40;;;7.90;99.90;;;;;;4972928;28;20187;-83
2023/05/19 03:04:20;;;;;;;3.63;2.33;;;7.90;99.90;;;;;;4966166;28;20872;-85
2023/05/19 03:06:45;;;;;;;2.37;2.17;;;7.90;99.90;;;;;;4981503;28;20199;-85
2023/05/19 03:09:15;;;;;;;5.03;2.23;;;7.90;99.90;;;;;;4969792;28;20182;-84
2023/05/19 03:11:41;;;;;;;2.00;1.90;;;7.80;99.90;;;;;;4969171;28;20187;-84
2023/05/19 03:14:08;;;;;;;2.73;1.83;;;7.80;99.90;;;;;;4982332;28;20192;-85
2023/05/19 03:16:34;;;;;;;4.10;1.95;;;7.70;99.90;;;;;;4982739;28;20207;-83
2023/05/19 03:19:00;;;;;;;2.60;1.70;;;7.70;99.90;;;;;;4976224;28;20199;-84
2023/05/19 03:21:26;;;;;;;2.95;2.38;;;7.70;99.90;;;;;;4966766;28;20206;-86
2023/05/19 03:23:53;;;;;;;5.40;1.87;;;7.60;99.90;;;;;;4969842;28;20182;-83
2023/05/19 03:26:19;;;;;;;5.82;2.33;;;8.40;99.90;;;;;;4978084;28;20202;-86
2023/05/19 03:28:44;;;;;;;2.73;1.90;;;7.50;99.90;;;;;;4968467;28;20703;-83
2023/05/19 03:31:10;;;;;;;2.60;1.57;;;7.50;99.90;;;;;;4962063;28;20202;-84
2023/05/19 03:33:35;;;;;;;4.17;2.23;;;7.40;99.90;;;;;;4982194;28;20183;-83
2023/05/19 03:36:02;;;;;;;4.70;2.30;;;7.40;99.90;;;;;;4965227;28;20215;-83
2023/05/19 03:38:28;;;;;;;4.53;2.10;;;7.40;99.90;;;;;;4968918;28;20186;-84
2023/05/19 03:40:53;;;;;;;3.60;2.27;;;7.30;99.90;;;;;;4970437;28;22433;-84
2023/05/19 03:43:19;;;;;;;4.30;3.10;;;7.30;99.90;;;;;;4961647;28;20202;-84
2023/05/19 03:45:45;;;;;;;7.33;2.17;;;7.30;99.90;;;;;;4979883;28;20687;-83
2023/05/19 03:48:11;;;;;;;4.50;2.90;;;;;;;;;;4973695;28;20653;-85
2023/05/19 03:50:36;;;;;;;6.97;2.10;;;7.40;99.90;;;;;;4972560;28;20194;-86
2023/05/19 03:53:02;;;;;;;6.60;2.00;;;7.40;99.90;;;;;;4974346;28;20204;-83
2023/05/19 03:55:28;;;;;;;8.67;1.97;;;7.40;99.90;;;;;;4983831;28;20194;-82
2023/05/19 03:57:54;;;;;;;2.05;1.85;;;7.40;99.90;;;;;;4973439;28;20206;-85
2023/05/19 04:00:20;;;;;;;5.20;2.72;;;7.40;99.90;;;;;;4957723;28;20344;-86
2023/05/19 04:02:46;;;;;;;5.07;2.30;;;7.50;99.90;;;;;;4971731;28;20186;-85
2023/05/19 04:05:11;;;;;;;7.53;3.20;;;7.50;99.90;;;;;;4987061;28;20213;-84
2023/05/19 04:07:37;;;;;;;4.23;2.10;;;7.60;99.90;;;;;;4973757;28;21021;-85
2023/05/19 04:10:04;;;;;;;12.13;2.37;;;7.60;99.90;;;;;;4966074;28;20190;-83
2023/05/19 04:12:29;;;;;;;2.70;2.20;;;7.70;99.90;;;;;;4980855;28;20652;-84
2023/05/19 04:14:55;;;;;;;2.50;1.70;;;7.80;99.90;;;;;;4955577;28;20256;-83
2023/05/19 04:17:25;;;;;;;8.17;2.83;;;7.90;99.90;;;;;;4979668;28;21230;-83
2023/05/19 04:19:50;;;;;;;5.20;2.20;;;7.90;99.90;;;;;;4990072;28;20216;-85
2023/05/19 04:22:16;;;;;;;2.73;1.90;;;7.90;99.90;;;;;;4978510;28;20194;-85
2023/05/19 04:24:41;;;;;;;3.60;2.50;;;7.90;99.90;;;;;;4992740;28;20461;-86
2023/05/19 04:27:10;;;;;;;3.00;2.47;;;8.00;99.90;;;;;;4985548;28;20265;-86
2023/05/19 04:29:37;;;;;;;5.03;2.03;;;8.20;99.90;;;;;;4980891;28;20199;-87
2023/05/19 04:32:06;;;;;;;2.72;1.60;;;8.20;99.90;;;;;;4998020;28;20174;-87
2023/05/19 04:34:33;;;;;;;2.25;2.05;;;8.30;99.90;;;;;;4976317;28;20194;-87
2023/05/19 04:36:59;;;;;;;4.20;2.25;;;8.30;99.90;;;;;;4994057;28;20183;-85
2023/05/19 04:39:25;;;;;;;3.67;2.80;;;;;;;;;;5004276;28;20204;-84
2023/05/19 04:41:52;;;;;;;8.60;2.60;;;8.40;99.90;;;;;;4998697;28;20472;-83
2023/05/19 04:44:18;;;;;;;4.20;2.42;;;8.80;99.90;;;;;;4991619;28;20450;-83
2023/05/19 04:46:44;;;;;;;3.23;1.50;;;8.80;99.90;;;;;;4997246;28;20199;-85
2023/05/19 04:49:13;;;;;;;4.57;2.38;;;9.00;99.90;;;;;;4973732;28;20221;-85
2023/05/19 04:51:42;;;;;;;2.47;2.00;;;9.10;99.90;;;;;;4993125;28;20183;-85
2023/05/19 04:54:08;;;;;;;5.32;1.85;;;9.20;99.90;;;;;;4992457;28;20211;-84
2023/05/19 04:56:34;;;;;;;3.17;2.10;;;9.30;99.90;;;;;;4976488;28;20933;-85
2023/05/19 04:59:00;;;;;;;2.10;2.00;;;9.60;99.90;;;;;;4992619;28;20214;-87
2023/05/19 05:01:25;;;;;;;1.73;1.63;;;9.80;99.90;;;;;;4978863;28;20213;-84
2023/05/19 05:03:57;;;;;;;2.63;2.40;;;9.90;99.90;;;;;;4977461;28;20260;-84
2023/05/19 05:06:23;;;;;;;5.10;2.28;;;10.10;99.90;;;;;;4992191;28;20605;-87
2023/05/19 05:08:48;;;;;;;4.90;2.63;;;10.40;99.90;;;;;;4995843;28;20273;-86
2023/05/19 05:11:14;;;;;;;4.80;2.17;;;11.20;99.90;;;;;;4981845;28;20171;-84
2023/05/19 05:13:40;;;;;;;6.07;3.60;;;11.70;99.90;;;;;;4981108;28;20284;-84
2023/05/19 05:16:07;;;;;;;13.17;5.67;;;12.10;99.90;;;;;;4991593;28;20557;-85
2023/05/19 05:18:33;;;;;;;5.28;3.05;;;12.40;99.90;;;;;;4998411;28;21387;-85
2023/05/19 05:20:59;;;;;;;6.18;2.83;;;13.20;99.90;;;;;;4994062;28;20206;-85
2023/05/19 05:23:25;;;;;;;5.23;3.27;;;14.40;99.90;;;;;;4979707;28;20652;-85
2023/05/19 05:25:51;;;;;;;2.80;2.33;;;15.50;99.90;;;;;;4995197;28;20507;-84
2023/05/19 05:28:17;;;;;;;10.47;2.67;;;17.20;99.90;;;;;;4991555;28;20450;-88
2023/05/19 05:30:43;;;;;;;2.10;1.63;;;;;;;;;;4985525;28;20436;-85
2023/05/19 05:33:09;;;;;;;2.30;1.60;;;20.60;99.90;;;;;;4994398;28;20183;-86
2023/05/19 05:35:35;;;;;;;5.33;2.10;;;;;;;;;;4996410;28;20459;-86
2023/05/19 05:38:02;;;;;;;1.73;1.43;;;;;;;;;;4998181;28;20442;-84
2023/05/19 05:40:28;;;;;;;6.77;2.63;;;;;;;;;;4994702;28;20616;-85
2023/05/19 05:42:57;;;;;;;4.80;2.17;;;;;;;;;;4998991;28;20552;-86
2023/05/19 05:45:23;;;;;;;4.57;1.83;;;;;;;;;;4999951;28;20469;-86
2023/05/19 05:47:50;;;;;;;2.60;1.90;;;20.30;82.00;;;;;;4992524;28;20440;-85
2023/05/19 05:50:16;;;;;;;5.50;1.80;;;19.30;84.90;;;;;;4986869;28;20533;-87
2023/05/19 05:52:45;;;;;;;2.93;2.10;;;18.90;89.50;;;;;;4994469;28;20515;-85
2023/05/19 05:55:11;;;;;;;5.80;4.43;;;19.00;90.10;;;;;;4989975;28;20496;-87
2023/05/19 05:57:37;;;;;;;5.37;2.30;;;19.00;90.50;;;;;;4984752;28;20495;-87
2023/05/19 06:00:09;;;;;;;3.57;2.47;;;19.60;90.10;;;;;;4990995;28;20446;-86
2023/05/19 06:02:35;;;;;;;4.43;1.83;;;18.60;90.70;;;;;;4992695;28;20183;-85
2023/05/19 06:05:01;;;;;;;3.97;1.50;;;20.00;91.10;;;;;;4984249;28;20473;-88
2023/05/19 06:07:27;;;;;;;3.67;2.67;;;;;;;;;;4993587;28;20443;-86
2023/05/19 06:09:53;;;;;;;2.60;1.43;;;;;;;;;;4981479;28;20266;-88
2023/05/19 06:12:19;;;;;;;2.10;1.90;;;;;;;;;;4983015;28;20442;-87
2023/05/19 06:14:45;;;;;;;5.10;2.07;;;;;;;;;;4981243;28;20613;-85
2023/05/19 06:17:11;;;;;;;2.73;1.70;;;;;;;;;;4987792;28;20537;-85
2023/05/19 06:19:37;;;;;;;6.10;1.80;;;;;;;;;;4986370;28;20451;-85
2023/05/19 06:22:03;;;;;;;3.83;2.13;;;;;;;;;;4969795;28;20444;-86
2023/05/19 06:24:29;;;;;;;4.17;2.30;;;;;;;;;;4981590;28;21068;-84
2023/05/19 06:26:55;;;;;;;5.83;2.23;;;;;;;;;;4986074;28;21054;-86
2023/05/19 06:29:21;;;;;;;7.87;2.33;;;;;;;;;;4982294;28;20449;-86
2023/05/19 06:31:47;;;;;;;3.27;1.97;;;;;;;;;;4985985;28;20458;-85
2023/05/19 06:34:16;;;;;;;7.67;2.90;;;;;;;;;;4988539;28;20453;-87
2023/05/19 06:36:42;;;;;;;2.57;2.30;;;;;;;;;;4975537;28;20473;-87
2023/05/19 06:39:08;;;;;;;5.50;2.57;;;;;;;;;;4971131;28;20984;-83
2023/05/19 06:41:34;;;;;;;2.57;2.37;;;;;;;;;;4979080;28;20534;-85
2023/05/19 06:44:00;;;;;;;3.07;2.03;;;;;;;;;;4987003;28;20471;-84
2023/05/19 06:46:26;;;;;;;4.60;2.43;;;;;;;;;;4989592;28;20548;-83
2023/05/19 06:48:52;;;;;;;3.70;2.40;;;;;;;;;;4998248;28;20447;-83
2023/05/19 06:51:20;;;;;;;7.27;2.80;;;;;;;;;;4989164;28;20432;-86
2023/05/19 06:53:46;;;;;;;9.60;2.57;;;;;;;;;;4989588;28;22566;-85
2023/05/19 06:56:14;;;;;;;6.07;2.50;;;;;;;;;;4982978;28;20504;-84
2023/05/19 06:58:40;;;;;;;6.00;2.67;;;;;;;;;;4985519;28;20445;-85
2023/05/19 07:01:06;;;;;;;5.30;2.27;;;;;;;;;;4968139;28;20446;-85
2023/05/19 07:03:32;;;;;;;3.23;2.33;;;;;;;;;;4986221;28;20444;-85
2023/05/19 07:05:58;;;;;;;5.30;2.70;;;;;;;;;;4984102;28;20529;-85
2023/05/19 07:08:26;;;;;;;4.47;3.37;;;;;;;;;;4987465;28;20519;-85
2023/05/19 07:10:54;;;;;;;2.97;2.70;;;;;;;;;;4991299;28;20474;-86
2023/05/19 07:13:20;;;;;;;3.47;2.30;;;;;;;;;;4987499;28;20456;-81
2023/05/19 07:15:47;;;;;;;4.40;2.63;;;;;;;;;;4989298;28;20458;-89
2023/05/19 07:18:13;;;;;;;3.40;2.60;;;25.50;45.80;;;;;;4988706;28;20435;-84
2023/05/19 07:20:40;;;;;;;5.43;3.43;;;;;;;;;;4979768;28;20458;-85
2023/05/19 07:23:05;;;;;;;3.07;2.07;;;24.50;49.50;;;;;;4980554;28;20449;-84
2023/05/19 07:25:32;;;;;;;4.03;2.60;;;;;;;;;;4986782;28;20460;-84
2023/05/19 07:27:58;;;;;;;3.23;2.30;;;23.20;51.10;;;;;;4984789;28;20179;-84
2023/05/19 07:30:27;;;;;;;5.00;2.30;;;22.40;52.30;;;;;;4984196;28;20762;-86
2023/05/19 07:32:53;;;;;;;4.63;2.20;;;;;;;;;;4967760;28;20444;-84
2023/05/19 07:35:19;;;;;;;6.00;2.20;;;21.30;55.80;;;;;;4975091;28;20461;-84
2023/05/19 07:37:45;;;;;;;6.87;2.67;;;21.20;56.60;;;;;;4966336;28;20481;-81
2023/05/19 07:40:11;;;;;;;2.00;1.80;;;21.50;57.50;;;;;;4982526;28;22378;-85
2023/05/19 07:42:37;;;;;;;4.33;1.90;;;;;;;;;;4985982;28;20192;-84
2023/05/19 07:45:03;;;;;;;3.27;2.17;;;;;;;;;;4984636;28;20210;-84
2023/05/19 07:47:29;;;;;;;9.73;2.50;;;24.70;53.90;;;;;;4982574;28;20465;-85
2023/05/19 07:49:55;;;;;;;9.67;2.30;;;24.70;54.40;;;;;;4961151;28;20433;-89
2023/05/19 07:52:21;;;;;;;1.80;1.60;;;;;;;;;;4986572;28;20866;-90
2023/05/19 07:54:47;;;;;;;3.03;2.27;;;;;;;;;;4987056;28;20323;-86
2023/05/19 07:57:13;;;;;;;4.97;2.80;;;24.00;53.10;;;;;;4988608;28;20537;-89
2023/05/19 07:59:39;;;;;;;8.03;2.40;;;;;;;;;;4986524;28;20445;-89
2023/05/19 08:02:05;;;;;;;4.50;2.07;;;;;;;;;;4980611;28;20432;-89
2023/05/19 08:04:31;;;;;;;6.97;2.83;;;22.10;55.80;;;;;;4969546;28;20422;-88
2023/05/19 08:06:57;;;;;;;2.07;1.80;;;;;;;;;;4989637;28;20460;-89
2023/05/19 08:09:23;;;;;;;2.83;1.80;;;;;;;;;;4991302;28;20430;-89
2023/05/19 08:11:49;;;;;;;2.73;2.30;;;21.20;56.00;;;;;;4995214;28;20531;-86
2023/05/19 08:14:15;;;;;;;3.10;2.17;;;20.50;57.80;;;;;;4990453;28;20453;-88
2023/05/19 08:16:41;;;;;;;7.70;3.40;;;19.70;59.10;;;;;;4985095;28;20211;-86
2023/05/19 08:19:07;;;;;;;5.93;2.80;;;19.40;61.00;;;;;;5002568;28;20460;-89
2023/05/19 08:21:33;;;;;;;2.40;2.10;;;19.70;63.70;;;;;;4980504;28;20441;-87
2023/05/19 08:24:03;;;;;;;2.90;2.17;;;20.30;61.30;;;;;;4998839;28;20485;-87
2023/05/19 08:26:28;;;;;;;5.13;2.30;;;20.30;62.00;;;;;;4981570;28;20796;-87
2023/05/19 08:28:54;;;;;;;4.37;2.40;;;19.90;63.20;;;;;;4992441;28;20477;-87
2023/05/19 08:31:21;;;;;;;3.93;2.90;;;19.50;65.00;;;;;;4994049;28;20260;-87
2023/05/19 08:33:46;;;;;;;8.30;2.70;;;18.50;67.00;;;;;;4991639;28;20179;-86
2023/05/19 08:36:12;;;;;;;5.77;2.27;;;;;;;;;;5000123;28;20476;-86
2023/05/19 08:38:38;;;;;;;2.50;2.00;;;;;;;;;;4998106;28;20213;-86
2023/05/19 08:41:04;;;;;;;10.10;2.70;;;17.30;72.00;;;;;;4991259;28;20525;-86
2023/05/19 08:43:30;;;;;;;3.53;1.77;;;17.20;76.60;;;;;;4983093;28;20537;-86
2023/05/19 08:45:58;;;;;;;4.67;2.60;;;17.10;76.20;;;;;;4984297;28;20470;-86
2023/05/19 08:48:28;;;;;;;3.80;1.83;;;17.30;78.00;;;;;;4998825;28;20187;-86
2023/05/19 08:51:13;;;;;;;6.73;3.20;;;17.40;78.50;;;;;;5000951;28;20436;-87
2023/05/19 08:53:42;;;;;;;11.70;2.17;;;17.40;76.50;;;;;;4995863;28;20890;-86
2023/05/19 08:56:14;;;;;;;2.73;2.50;;;17.60;79.20;;;;;;4976056;28;20463;-86
2023/05/19 08:58:42;;;;;;;5.03;2.30;;;17.90;82.30;;;;;;5003597;28;20465;-86
2023/05/19 09:01:09;;;;;;;5.87;2.43;;;18.20;76.50;;;;;;4993517;28;20434;-86
2023/05/19 09:03:36;;;;;;;6.10;3.03;;;;;;;;;;4984740;28;20547;-86
2023/05/19 09:06:05;;;;;;;3.40;2.30;;;18.30;76.40;;;;;;4979438;28;20476;-86
2023/05/19 09:08:31;;;;;;;4.57;2.30;;;;;;;;;;4968158;28;20446;-86
2023/05/19 09:10:57;;;;;;;6.53;2.37;;;;;;;;;;4989396;28;20433;-87
2023/05/19 09:13:23;;;;;;;10.70;2.23;;;18.90;77.80;;;;;;4983392;28;21722;-87
2023/05/19 09:15:51;;;;;;;4.67;2.83;;;18.80;78.30;;;;;;4981513;28;20511;-90
2023/05/19 09:18:17;;;;;;;2.63;1.90;;;18.80;79.10;;;;;;4989581;28;20453;-88
2023/05/19 09:20:44;;;;;;;3.00;2.43;;;18.70;75.80;;;;;;4972888;28;20454;-89
2023/05/19 09:23:14;;;;;;;4.50;2.20;;;18.60;79.60;;;;;;4984978;28;20197;-88
2023/05/19 09:25:50;;;;;;;7.73;2.43;;;19.00;78.90;;;;;;4967100;28;20472;-88
2023/05/19 09:28:24;;;;;;;8.10;2.77;;;19.00;77.10;;;;;;4991761;28;20512;-88
2023/05/19 09:31:09;;;;;;;3.77;2.20;;;19.20;80.90;;;;;;4970361;28;20450;-88
2023/05/19 09:33:37;;;;;;;2.90;2.23;;;19.00;76.20;;;;;;4995164;28;20441;-87
2023/05/19 09:36:10;;;;;;;5.40;3.27;;;19.00;76.90;;;;;;4986322;28;20471;-89
2023/05/19 09:38:39;;;;;;;7.10;3.00;;;18.40;76.10;;;;;;4987637;28;20537;-89
2023/05/19 09:41:06;;;;;;;8.03;2.80;;;18.20;79.60;;;;;;4973925;28;20535;-88
2023/05/19 09:43:33;;;;;;;3.10;2.50;;;18.20;77.70;;;;;;4993610;28;20485;-91
2023/05/19 09:46:07;;;;;;;3.70;2.07;;;18.40;81.40;;;;;;4978729;28;20496;-89
2023/05/19 09:48:35;;;;;;;7.87;3.70;;;18.30;77.90;;;;;;4984348;28;20455;-88
2023/05/19 09:51:01;;;;;;;6.50;2.83;;;;;;;;;;4985409;28;20433;-88
2023/05/19 09:53:29;;;;;;;12.77;2.90;;;18.30;78.90;;;;;;4990962;28;20430;-89
2023/05/19 09:55:58;;;;;;;3.67;2.50;;;18.40;81.70;;;;;;4985755;28;20630;-89
2023/05/19 09:58:25;;;;;;;7.80;2.20;;;18.50;80.30;;;;;;4989706;28;20445;-89
2023/05/19 10:00:53;;;;;;;3.83;2.23;;;;;;;;;;4968202;28;20442;-88
2023/05/19 10:03:21;;;;;;;2.77;2.13;;;20.00;82.20;;;;;;4982274;28;20448;-87
2023/05/19 10:05:48;;;;;;;8.63;2.60;;;18.30;80.60;;;;;;4986204;28;20476;-89
2023/05/19 10:08:16;;;;;;;7.63;3.00;;;17.80;80.20;;;;;;4971412;28;20452;-89
2023/05/19 10:10:46;;;;;;;9.00;3.27;;;17.80;80.90;;;;;;4993289;28;20426;-89
2023/05/19 10:13:12;;;;;;;4.30;3.03;;;19.10;82.80;;;;;;4984863;28;20469;-89
2023/05/19 10:15:40;;;;;;;7.40;3.00;;;17.40;84.10;;;;;;4981548;28;20609;-89
2023/05/19 10:18:08;;;;;;;3.77;2.70;;;17.60;83.00;;;;;;4983550;28;20442;-90
2023/05/19 10:20:35;;;;;;;8.63;3.73;;;;;;;;;;4975461;28;20465;-89
2023/05/19 10:23:01;;;;;;;4.47;2.40;;;17.60;79.80;;;;;;4993960;28;20475;-88
2023/05/19 10:25:27;;;;;;;7.30;2.90;;;;;;;;;;4996111;28;21760;-89
2023/05/19 10:27:57;;;;;;;8.30;2.90;;;17.70;81.20;;;;;;4994898;28;20433;-88
2023/05/19 10:30:30;;;;;;;4.83;2.53;;;17.70;82.10;;;;;;4999785;28;20966;-89
2023/05/19 10:33:00;;;;;;;9.50;3.40;;;17.70;81.00;;;;;;4996284;28;20442;-91
2023/05/19 10:35:44;;;;;;;4.60;2.13;;;17.60;82.60;;;;;;5000015;28;20495;-89
2023/05/19 10:38:26;;;;;;;3.63;2.60;;;17.60;83.00;;;;;;4998476;28;20472;-89
2023/05/19 10:41:05;;;;;;;3.87;2.13;;;17.80;83.40;;;;;;4983585;28;20510;-88
2023/05/19 10:43:44;;;;;;;4.07;2.50;;;18.00;82.50;;;;;;4994378;28;21130;-88
2023/05/19 10:46:10;;;;;;;2.40;2.20;;;;;;;;;;4984496;28;20478;-89
2023/05/19 10:48:36;;;;;;;5.47;2.80;;;;;;;;;;4999714;28;20438;-89
2023/05/19 10:51:02;;;;;;;5.70;2.40;;;;;;;;;;4992112;28;20434;-89
2023/05/19 10:53:33;;;;;;;9.10;2.70;;;18.20;82.40;;;;;;4995368;28;20441;-89
2023/05/19 10:56:05;;;;;;;6.50;2.90;;;18.10;81.50;;;;;;4992106;28;20461;-88
2023/05/19 10:58:37;;;;;;;6.70;3.43;;;18.00;82.30;;;;;;4998670;28;21144;-89
2023/05/19 11:01:08;;;;;;;8.53;2.73;;;22.20;87.70;;;;;;4976318;28;20442;-88
2023/05/19 11:03:56;;;;;;;7.87;2.63;;;18.00;83.70;;;;;;4973552;28;20449;-89
2023/05/19 11:06:27;;;;;;;3.93;2.57;;;18.90;86.50;;;;;;4992607;28;20474;-89
2023/05/19 11:09:00;;;;;;;4.57;2.53;;;17.80;84.80;;;;;;4987672;28;20442;-88
2023/05/19 11:11:41;;;;;;;5.83;2.63;;;17.30;87.20;;;;;;4993223;28;20961;-88
2023/05/19 11:14:10;;;;;;;5.10;2.60;;;17.20;87.60;;;;;;4993118;28;20432;-88
2023/05/19 11:16:38;;;;;;;3.80;2.50;;;17.20;88.30;;;;;;4990222;28;20462;-87
2023/05/19 11:19:05;;;;;;;3.50;2.63;;;16.60;86.00;;;;;;4988852;28;20477;-88
2023/05/19 11:21:51;;;;;;;6.20;2.67;;;17.30;86.70;;;;;;4994443;28;20459;-88
2023/05/19 11:24:35;;;;;;;11.83;3.00;;;16.90;85.90;;;;;;4986921;28;20461;-89
2023/05/19 11:27:20;;;;;;;3.50;2.20;;;16.80;86.60;;;;;;4995529;28;20529;-86
2023/05/19 11:29:47;;;;;;;4.13;2.20;;;17.10;87.80;;;;;;4986190;28;20429;-87
2023/05/19 11:32:13;;;;;;;7.23;3.03;;;17.20;88.10;;;;;;4969836;28;20924;-87
2023/05/19 11:34:39;;;;;;;10.00;2.53;;;;;;;;;;4975551;28;20430;-86
2023/05/19 11:37:05;;;;;;;7.30;2.43;;;17.30;86.20;;;;;;4991458;28;20505;-90
2023/05/19 11:39:32;;;;;;;4.27;2.30;;;17.30;86.90;;;;;;4976174;28;20583;-87
2023/05/19 11:41:57;;;;;;;6.20;2.50;;;17.40;87.80;;;;;;4992610;28;20445;-87
2023/05/19 11:44:23;;;;;;;4.70;2.50;;;;;;;;;;4986859;28;20839;-87
2023/05/19 11:46:49;;;;;;;5.87;2.30;;;17.60;86.50;;;;;;4991870;28;20211;-88
2023/05/19 11:49:15;;;;;;;3.20;2.53;;;18.00;88.80;;;;;;4984118;28;20520;-88
2023/05/19 11:51:44;;;;;;;3.73;2.10;;;18.10;87.30;;;;;;4995351;28;20190;-89
2023/05/19 11:54:11;;;;;;;8.77;2.47;;;;;;;;;;4989981;28;20175;-88
2023/05/19 11:56:41;;;;;;;3.83;2.70;;;18.20;88.40;;;;;;4993249;28;20509;-89
2023/05/19 11:59:07;;;;;;;3.73;2.57;;;;;;;;;;4984805;28;20529;-88
2023/05/19 12:01:33;;;;;;;4.03;3.10;;;17.20;88.00;;;;;;4990983;28;20501;-85
2023/05/19 12:03:59;;;;;;;5.77;2.83;;;17.20;88.70;;;;;;4988537;28;20439;-86
2023/05/19 12:06:26;;;;;;;5.43;2.90;;;16.80;89.20;;;;;;4988264;28;20524;-87
2023/05/19 12:08:53;;;;;;;8.23;2.90;;;16.80;90.80;;;;;;4974351;28;20434;-87
2023/05/19 12:11:19;;;;;;;4.50;3.40;;;16.80;91.10;;;;;;4976545;28;20510;-86
2023/05/19 12:13:46;;;;;;;8.40;3.43;;;16.50;91.10;;;;;;4991364;28;20530;-87
2023/05/19 12:16:12;;;;;;;4.60;3.00;;;17.50;92.00;;;;;;4960597;28;20203;-87
2023/05/19 12:18:39;;;;;;;5.50;2.70;;;;;;;;;;4973798;28;20430;-86
2023/05/19 12:21:05;;;;;;;5.20;3.40;;;16.90;91.10;;;;;;4978909;28;20430;-87
2023/05/19 12:23:32;;;;;;;4.83;3.00;;;17.00;91.70;;;;;;4969538;28;20606;-86
2023/05/19 12:25:58;;;;;;;7.07;3.27;;;17.30;91.10;;;;;;4985917;28;20466;-90
2023/05/19 12:28:24;;;;;;;6.17;3.10;;;17.30;91.40;;;;;;4986497;28;20444;-89
2023/05/19 12:30:51;;;;;;;3.40;3.10;;;17.20;91.80;;;;;;4985436;28;20430;-86
2023/05/19 12:33:18;;;;;;;8.67;2.90;;;17.30;90.90;;;;;;4977582;28;20261;-89
2023/05/19 12:35:45;;;;;;;3.27;2.37;;;17.10;90.60;;;;;;4987823;28;20457;-87
2023/05/19 12:38:11;;;;;;;6.93;2.60;;;17.20;91.90;;;;;;4992632;28;20438;-88
2023/05/19 12:40:38;;;;;;;5.20;2.50;;;17.20;91.80;;;;;;4984333;28;20811;-88
2023/05/19 12:43:04;;;;;;;6.03;2.20;;;;;;;;;;4997570;28;20225;-88
2023/05/19 12:45:34;;;;;;;4.30;2.50;;;16.60;92.10;;;;;;4990050;28;20466;-88
2023/05/19 12:48:03;;;;;;;5.30;2.30;;;16.40;92.40;;;;;;4986498;28;20922;-88
2023/05/19 12:50:29;;;;;;;3.67;2.87;;;16.70;93.30;;;;;;4997425;28;20433;-88
2023/05/19 12:52:58;;;;;;;4.40;2.63;;;16.80;92.80;;;;;;4994568;28;20444;-89
2023/05/19 12:55:23;;;;;;;6.30;3.27;;;16.60;93.20;;;;;;4976574;28;20960;-88
2023/05/19 12:57:53;;;;;;;3.23;2.53;;;16.50;93.00;;;;;;4971686;28;20553;-88
2023/05/19 13:00:20;;;;;;;4.00;2.30;;;16.50;93.60;;;;;;4987349;28;20244;-88
2023/05/19 13:03:16;;;;;;;4.73;2.67;;;16.70;94.30;;;;;;4984095;28;21341;-88
2023/05/19 13:05:47;;;;;;;6.47;2.73;;;16.60;93.40;;;;;;4945562;28;20501;-88
2023/05/19 13:08:15;;;;;;;5.93;2.80;;;16.60;94.40;;;;;;4987077;28;20469;-89
2023/05/19 13:10:42;;;;;;;9.97;2.60;;;16.70;93.90;;;;;;4977584;28;20426;-89
2023/05/19 13:13:09;;;;;;;3.93;2.97;;;17.00;94.90;;;;;;4996794;28;21236;-89
2023/05/19 13:15:38;;;;;;;5.20;2.37;;;16.90;95.20;;;;;;4991633;28;20513;-89